Coal City, Alabama
Current Conditions -  °F | °C
As of 8:15 AM on Monday 20 Oct 2014 (Local Time) from KASN Reporting Station
Clear Clear  
Wind Chill: 49°   Ceiling: Unl
Heat Index: 49°   Visibility: 10mi
Dew Point: 48°   Wind: 0mph
Humidity: 95%   Direction: NA
Pressure: 30.12"   Gusts: NA
Location:  33.6608°N, 86.2636°W
Report Text: KASN 201315Z AUTO 00000KT 10SM CLR 10/09 A3012 RMK AO2 T00960088
Loading
Personal Weather Stations






























Interactive Weather Map
Tropical Storm Tracking
New forecast layout! Learn more

10-Day Weather Forecast

Advertisements
Track Severe Weather on mobile